Willkommen auf der Webseite des Flugplatzes Uetersen/Heist PDF Drucken E-Mail

 

Liebe Fliegerfreunde, liebe Gäste und Kunden des Flugplatzes Uetersen,

 

Herr Szaguhn steht mit seinem Tower-Restaurant wieder täglich außer Montags für Sie bereit.

 

 

 

 

Zufallsbild

Aktuelle Termine

Mo Di Mi Do Fr Sa So
27 28 29 30 1 2 3
4 5 6 7 8 9 10
11 12 13 14 15 16 17
18 19 20 21 22 23 24
25 26 27 28 29 30 31

Pilotenwetter

[source: ADDS]
METAR
EDDH 241220Z 03003KT 330V090 9999 FEW047 27/16 Q1018 NOSIG =
TAF
TAF EDDH 241100Z 2412/2518 05004KT 9999 FEW045 PROB30 TEMPO 2414/2418 TSRA SCT040CB PROB30 TEMPO 2502/2506 2500 BR BECMG 2509/2511 29006KT TEMPO 2509/2518 SHRA BKN025CB PROB30 TEMPO 2509/2518 TSRA =